Time;durP1;ratioP1;P1;durP2;ratioP2;P2;SDS_P1;SDS_P2;PMS_P1;PMS_P2;Temp;Humidity;BMP_temperature;BMP_pressure;BME280_temperature;BME280_humidity;BME280_pressure;Samples;Min_cycle;Max_cycle;Signal;HPM_P1;HPM_P2
2023/04/11 00:01:00;;;;;;;5.67;2.00;;;;;;;9.65;100.00;100267.59;6086666;28;20037;-69
2023/04/11 00:03:55;;;;;;;3.50;1.80;;;;;;;9.54;100.00;100252.75;6079294;28;20044;-69
2023/04/11 00:06:51;;;;;;;2.83;1.55;;;;;;;9.54;100.00;100250.13;6100055;28;20038;-69
2023/04/11 00:09:46;;;;;;;3.47;1.63;;;;;;;9.51;100.00;100245.13;6072833;28;20029;-69
2023/04/11 00:12:41;;;;;;;3.43;1.67;;;;;;;9.54;100.00;100212.22;6073060;28;20097;-71
2023/04/11 00:15:38;;;;;;;4.87;1.70;;;;;;;9.48;100.00;100218.94;6071937;28;20029;-69
2023/04/11 00:18:35;;;;;;;3.83;1.90;;;;;;;9.41;100.00;100223.19;6072696;28;20659;-70
2023/04/11 00:21:31;;;;;;;9.90;1.92;;;;;;;9.36;100.00;100214.88;6072733;28;20033;-70
2023/04/11 00:24:26;;;;;;;5.77;2.00;;;;;;;9.46;100.00;100226.22;6072124;28;20405;-70
2023/04/11 00:27:21;;;;;;;4.77;2.07;;;;;;;9.27;100.00;100202.53;6072830;28;20029;-71
2023/04/11 00:30:17;;;;;;;4.53;2.00;;;;;;;9.33;100.00;100201.13;6071880;28;20087;-72
2023/04/11 00:33:13;;;;;;;5.18;1.95;;;;;;;9.27;100.00;100162.88;6074118;28;20025;-72
2023/04/11 00:36:09;;;;;;;4.75;1.88;;;;;;;9.10;100.00;100094.94;6072136;28;20033;-73
2023/04/11 00:39:04;;;;;;;5.78;2.67;;;;;;;9.16;100.00;100069.69;6076314;28;20052;-69
2023/04/11 00:42:05;;;;;;;6.60;2.10;;;;;;;9.05;100.00;100048.78;6076885;28;20367;-70
2023/04/11 00:45:00;;;;;;;4.78;2.00;;;;;;;9.04;100.00;100053.22;6076046;28;20040;-73
2023/04/11 00:47:55;;;;;;;6.15;2.30;;;;;;;9.06;100.00;100038.03;6076352;28;20073;-71
2023/04/11 00:50:50;;;;;;;4.27;1.80;;;;;;;9.01;100.00;100066.75;6077023;28;20025;-71
2023/04/11 00:53:46;;;;;;;4.20;2.10;;;;;;;9.02;100.00;100081.66;6075707;28;20037;-72
2023/04/11 00:56:42;;;;;;;3.90;1.80;;;;;;;9.19;100.00;100120.47;6075996;28;20036;-72
2023/04/11 00:59:37;;;;;;;3.80;1.95;;;;;;;9.10;100.00;100142.56;6058415;28;20344;-72
2023/04/11 01:02:32;;;;;;;5.37;1.83;;;;;;;8.97;100.00;100160.56;6076173;28;20033;-72
2023/04/11 01:05:29;;;;;;;4.17;2.23;;;;;;;8.89;100.00;100173.72;6075267;28;20284;-70
2023/04/11 01:08:25;;;;;;;4.70;2.00;;;;;;;9.00;100.00;100199.94;6087324;28;20529;-72
2023/04/11 01:11:20;;;;;;;5.00;2.30;;;;;;;8.93;100.00;100188.31;6076051;28;20033;-71
2023/04/11 01:14:17;;;;;;;5.47;1.98;;;;;;;8.93;100.00;100193.59;6075210;28;20034;-72
2023/04/11 01:17:13;;;;;;;5.30;1.92;;;;;;;8.85;100.00;100175.84;6075673;28;20065;-73
2023/04/11 01:20:09;;;;;;;5.05;1.98;;;;;;;9.02;100.00;100189.22;6075702;28;20038;-71
2023/04/11 01:23:05;;;;;;;4.88;2.20;;;;;;;8.93;100.00;100198.88;6074493;28;20037;-71
2023/04/11 01:26:00;;;;;;;4.97;1.80;;;;;;;8.92;100.00;100207.78;6074932;28;20029;-71
2023/04/11 01:28:56;;;;;;;2.93;1.33;;;;;;;8.97;100.00;100213.47;6075479;28;20079;-70
2023/04/11 01:31:51;;;;;;;4.18;1.80;;;;;;;8.96;100.00;100196.78;6074913;28;20389;-70
2023/04/11 01:34:47;;;;;;;4.10;1.70;;;;;;;8.95;100.00;100173.97;6080118;28;20041;-70
2023/04/11 01:37:42;;;;;;;3.50;1.63;;;;;;;8.90;100.00;100170.09;6090589;28;20205;-72
2023/04/11 01:40:38;;;;;;;4.73;1.30;;;;;;;8.92;100.00;100176.91;6074223;28;20498;-72
2023/04/11 01:43:33;;;;;;;2.38;1.27;;;;;;;8.98;100.00;100183.41;6057163;28;20048;-71
2023/04/11 01:46:28;;;;;;;3.47;1.30;;;;;;;8.94;100.00;100176.75;6090692;28;20033;-71
2023/04/11 01:49:25;;;;;;;3.30;1.35;;;;;;;9.08;100.00;100180.72;6057294;28;20036;-74
2023/04/11 01:52:20;;;;;;;4.10;1.45;;;;;;;9.04;100.00;100188.09;6090100;28;20108;-71
2023/04/11 01:55:16;;;;;;;3.83;1.23;;;;;;;8.91;100.00;100169.13;6073775;28;20048;-69
2023/04/11 01:58:11;;;;;;;3.42;1.38;;;;;;;8.98;100.00;100186.03;6075039;28;20041;-73
2023/04/11 02:01:07;;;;;;;2.27;1.10;;;;;;;8.93;100.00;100173.28;6074977;28;20045;-74
2023/04/11 02:04:02;;;;;;;4.15;1.40;;;;;;;8.93;100.00;100159.22;6073824;28;20095;-70
2023/04/11 02:06:57;;;;;;;3.33;1.07;;;;;;;8.97;100.00;100156.13;6074751;28;20033;-73
2023/04/11 02:09:52;;;;;;;3.63;1.13;;;;;;;8.98;100.00;100159.59;6074534;28;20120;-71
2023/04/11 02:12:48;;;;;;;3.23;1.17;;;;;;;8.96;100.00;100151.00;6073274;28;20037;-73
2023/04/11 02:15:43;;;;;;;2.83;1.30;;;;;;;8.99;100.00;100145.41;6073938;28;20025;-72
2023/04/11 02:18:38;;;;;;;4.83;1.43;;;;;;;8.93;100.00;100140.72;6074610;28;20434;-73
2023/04/11 02:21:34;;;;;;;3.87;1.40;;;;;;;8.99;100.00;100142.75;6074091;28;20033;-71
2023/04/11 02:24:29;;;;;;;2.35;1.20;;;;;;;8.92;100.00;100131.09;6073224;28;20040;-73
2023/04/11 02:27:25;;;;;;;2.50;1.30;;;;;;;8.85;100.00;100130.06;6074137;28;20453;-73
2023/04/11 02:30:20;;;;;;;3.80;1.33;;;;;;;8.84;100.00;100120.44;6087865;28;20429;-72
2023/04/11 02:33:15;;;;;;;3.30;0.87;;;;;;;8.83;100.00;100118.81;6075698;28;20037;-71
2023/04/11 02:36:11;;;;;;;4.20;1.40;;;;;;;8.71;100.00;100085.63;6112492;28;20064;-70
2023/04/11 02:39:06;;;;;;;2.70;1.10;;;;;;;8.79;100.00;100088.34;6073595;28;20431;-72
2023/04/11 02:42:01;;;;;;;5.03;1.60;;;;;;;8.67;100.00;100081.63;6072700;28;20445;-71
2023/04/11 02:44:57;;;;;;;7.03;1.57;;;;;;;8.69;100.00;100077.03;6073460;28;20475;-72
2023/04/11 02:47:52;;;;;;;3.73;1.43;;;;;;;8.62;100.00;100079.41;6073744;28;20389;-71
2023/04/11 02:50:47;;;;;;;3.07;1.20;;;;;;;8.62;100.00;100073.28;6072721;28;20029;-72
2023/04/11 02:53:43;;;;;;;3.50;1.40;;;;;;;8.73;100.00;100087.13;6072581;28;20038;-72
2023/04/11 02:56:38;;;;;;;4.13;1.10;;;;;;;8.70;99.97;100090.06;6073610;28;20037;-72
2023/04/11 02:59:33;;;;;;;1.70;0.87;;;;;;;8.57;99.53;100075.56;6072855;28;20045;-72
2023/04/11 03:02:28;;;;;;;2.03;1.30;;;;;;;8.54;98.34;100075.84;6072843;28;20429;-71
2023/04/11 03:05:24;;;;;;;2.17;0.97;;;;;;;8.48;97.15;100061.41;6073177;28;20037;-71
2023/04/11 03:08:19;;;;;;;3.90;0.90;;;;;;;8.53;96.98;100063.63;6073075;28;20041;-71
2023/04/11 03:11:15;;;;;;;2.37;1.13;;;;;;;8.48;96.31;100060.63;6073440;28;20411;-70
2023/04/11 03:14:10;;;;;;;2.15;0.82;;;;;;;8.43;96.63;100062.84;6072151;28;20034;-71
2023/04/11 03:17:05;;;;;;;2.03;0.80;;;;;;;8.50;95.37;100085.06;6073116;28;20033;-70
2023/04/11 03:20:01;;;;;;;1.90;0.70;;;;;;;8.47;95.16;100085.34;6073330;28;20039;-72
2023/04/11 03:22:56;;;;;;;1.90;0.60;;;;;;;8.37;95.06;100078.31;6072516;28;20399;-72
2023/04/11 03:25:53;;;;;;;1.63;0.70;;;;;;;8.34;94.49;100085.72;6072450;28;20489;-70
2023/04/11 03:28:48;;;;;;;3.00;0.70;;;;;;;8.15;95.00;100068.09;6073229;28;20033;-72
2023/04/11 03:31:43;;;;;;;3.10;0.70;;;;;;;8.15;94.97;100069.94;6071970;28;20067;-69
2023/04/11 03:34:39;;;;;;;2.63;0.70;;;;;;;8.29;95.10;100091.41;6074578;28;20470;-71
2023/04/11 03:37:35;;;;;;;1.60;0.53;;;;;;;8.17;94.89;100082.00;6072752;28;20037;-71
2023/04/11 03:40:30;;;;;;;1.88;0.80;;;;;;;8.23;95.13;100088.53;6073048;28;20105;-71
2023/04/11 03:43:25;;;;;;;1.90;0.53;;;;;;;8.35;95.28;100109.34;6072168;28;20625;-72
2023/04/11 03:46:21;;;;;;;2.57;0.80;;;;;;;8.32;95.11;100096.41;6072041;28;20033;-70
2023/04/11 03:49:16;;;;;;;4.43;0.70;;;;;;;8.35;94.82;100093.47;6072846;28;20112;-72
2023/04/11 03:52:13;;;;;;;1.53;0.90;;;;;;;8.38;94.52;100092.34;6072270;28;20055;-71
2023/04/11 03:55:09;;;;;;;2.63;0.50;;;;;;;8.33;94.47;100084.03;6072183;28;20052;-71
2023/04/11 03:58:04;;;;;;;2.30;0.77;;;;;;;8.28;94.26;100073.94;6072839;28;20503;-72
2023/04/11 04:01:01;;;;;;;1.73;0.63;;;;;;;8.41;94.18;100089.41;6072143;28;20465;-72
2023/04/11 04:03:56;;;;;;;2.42;1.17;;;;;;;8.48;94.24;100081.75;6070413;28;20366;-71
2023/04/11 04:06:55;;;;;;;2.77;1.03;;;;;;;8.49;94.27;100089.50;6072476;28;20033;-71
2023/04/11 04:09:51;;;;;;;2.45;0.82;;;;;;;8.50;94.71;100127.34;6072730;28;20045;-72
2023/04/11 04:12:46;;;;;;;3.33;1.35;;;;;;;8.37;92.90;100143.50;6073444;28;20034;-71
2023/04/11 04:15:42;;;;;;;1.52;0.93;;;;;;;8.07;92.45;100130.56;6076928;28;20041;-73
2023/04/11 04:18:37;;;;;;;3.17;0.90;;;;;;;7.85;91.01;100152.84;6078292;28;20037;-71
2023/04/11 04:21:36;;;;;;;2.20;0.80;;;;;;;7.65;90.78;100161.78;6076621;28;20399;-74
2023/04/11 04:24:36;;;;;;;2.45;0.98;;;;;;;7.62;91.20;100172.59;6075930;28;20445;-70
2023/04/11 04:27:32;;;;;;;4.10;0.90;;;;;;;7.57;90.86;100175.69;6077527;28;20033;-72
2023/04/11 04:30:27;;;;;;;1.90;0.77;;;;;;;7.52;91.15;100145.41;6077611;28;20101;-71
2023/04/11 04:33:23;;;;;;;3.17;0.65;;;;;;;7.41;91.92;100156.94;6075720;28;20298;-70
2023/04/11 04:36:18;;;;;;;2.88;1.10;;;;;;;7.03;95.16;100149.84;6076918;28;20033;-70
2023/04/11 04:39:18;;;;;;;2.87;0.90;;;;;;;6.77;98.07;100156.59;6075542;28;20486;-70
2023/04/11 04:42:13;;;;;;;4.97;1.17;;;;;;;6.68;99.55;100149.53;6076183;28;20768;-69
2023/04/11 04:45:10;;;;;;;4.67;1.20;;;;;;;6.61;99.74;100148.38;6076532;28;20121;-70
2023/04/11 04:48:05;;;;;;;7.28;1.30;;;;;;;6.63;100.00;100153.53;6076525;28;20083;-70
2023/04/11 04:51:02;;;;;;;7.47;1.43;;;;;;;6.68;100.00;100161.84;6075790;28;20033;-71
2023/04/11 04:53:58;;;;;;;8.90;1.30;;;;;;;6.77;100.00;100159.22;6075292;28;20112;-70
2023/04/11 04:56:54;;;;;;;4.03;1.20;;;;;;;6.87;99.97;100178.53;6077705;28;20051;-70
2023/04/11 04:59:49;;;;;;;8.18;2.15;;;;;;;7.02;97.33;100190.34;6089114;28;20033;-71
2023/04/11 05:02:46;;;;;;;3.90;1.53;;;;;;;6.62;98.56;100172.91;6084871;28;20052;-70
2023/04/11 05:05:41;;;;;;;7.18;1.40;;;;;;;6.12;100.00;100182.53;6095387;28;20548;-71
2023/04/11 05:08:37;;;;;;;5.90;1.67;;;;;;;5.81;100.00;100179.88;6076316;28;20037;-71
2023/04/11 05:11:32;;;;;;;4.97;1.87;;;;;;;5.65;100.00;100153.19;6075432;28;20157;-71
2023/04/11 05:14:28;;;;;;;6.57;1.27;;;;;;;5.85;100.00;100165.50;6075614;28;20490;-69
2023/04/11 05:17:25;;;;;;;2.77;1.17;;;;;;;5.79;100.00;100162.50;6076153;28;20063;-71
2023/04/11 05:20:20;;;;;;;7.63;1.10;;;;;;;5.87;100.00;100162.78;6075874;28;20041;-71
2023/04/11 05:23:15;;;;;;;7.00;1.55;;;;;;;5.93;100.00;100178.00;6074102;28;20156;-71
2023/04/11 05:26:11;;;;;;;7.47;1.50;;;;;;;5.95;100.00;100157.69;6075518;28;20347;-72
2023/04/11 05:29:06;;;;;;;4.50;1.20;;;;;;;5.98;100.00;100152.97;6075711;28;20060;-70
2023/04/11 05:32:01;;;;;;;5.10;1.30;;;;;;;6.02;100.00;100152.72;6074668;28;20116;-71
2023/04/11 05:34:57;;;;;;;8.17;1.57;;;;;;;5.99;100.00;100151.19;6075142;28;20033;-73
2023/04/11 05:37:52;;;;;;;11.87;1.80;;;;;;;6.16;100.00;100162.91;6075351;28;20036;-73
2023/04/11 05:40:47;;;;;;;6.67;2.27;;;;;;;6.28;100.00;100189.00;6075375;28;20272;-73
2023/04/11 05:43:43;;;;;;;5.27;1.83;;;;;;;6.36;100.00;100188.38;6073850;28;20038;-72
2023/04/11 05:46:38;;;;;;;4.63;2.10;;;;;;;6.32;100.00;100164.09;6075236;28;20497;-72
2023/04/11 05:49:33;;;;;;;5.13;2.03;;;;;;;6.40;100.00;100168.69;6075913;28;20426;-73
2023/04/11 05:52:28;;;;;;;6.23;1.90;;;;;;;6.47;100.00;100164.53;6097136;28;20036;-72
2023/04/11 05:55:24;;;;;;;10.13;1.87;;;;;;;6.48;100.00;100171.50;6078445;28;20044;-71
2023/04/11 05:58:19;;;;;;;6.17;2.03;;;;;;;6.68;100.00;100170.59;6075399;28;20076;-71
2023/04/11 06:01:17;;;;;;;9.15;2.13;;;;;;;6.83;100.00;100168.41;6074915;28;20107;-72
2023/04/11 06:04:12;;;;;;;5.15;1.60;;;;;;;6.86;100.00;100182.13;6074560;28;20073;-73
2023/04/11 06:07:08;;;;;;;7.20;1.67;;;;;;;6.83;100.00;100171.03;6074967;28;20087;-71
2023/04/11 06:10:06;;;;;;;5.55;2.20;;;;;;;6.99;100.00;100184.50;6074320;28;20386;-71
2023/04/11 06:13:02;;;;;;;8.98;2.10;;;;;;;7.08;100.00;100183.72;6074811;28;20034;-71
2023/04/11 06:15:57;;;;;;;6.00;1.90;;;;;;;7.42;100.00;100197.34;6074153;28;20037;-71
2023/04/11 06:18:53;;;;;;;8.35;2.05;;;;;;;7.45;100.00;100216.34;6074901;28;20026;-72
2023/04/11 06:21:48;;;;;;;7.57;1.50;;;;;;;7.30;100.00;100219.53;6074710;28;20041;-72
2023/04/11 06:24:46;;;;;;;5.93;1.70;;;;;;;7.04;100.00;100198.94;6073383;28;20032;-71
2023/04/11 06:27:41;;;;;;;6.53;1.90;;;;;;;7.06;100.00;100226.03;6074643;28;20061;-72
2023/04/11 06:30:37;;;;;;;5.27;1.50;;;;;;;6.74;100.00;100193.75;6074336;28;20040;-70
2023/04/11 06:33:32;;;;;;;3.00;1.50;;;;;;;6.67;100.00;100221.59;6073618;28;20482;-73
2023/04/11 06:36:29;;;;;;;2.70;1.60;;;;;;;6.38;100.00;100187.28;6073923;28;20152;-71
2023/04/11 06:39:24;;;;;;;5.82;1.20;;;;;;;6.38;100.00;100183.78;6077722;28;20029;-71
2023/04/11 06:42:20;;;;;;;3.15;0.90;;;;;;;6.34;100.00;100182.38;6073876;28;20033;-72
2023/04/11 06:45:15;;;;;;;2.60;1.17;;;;;;;6.30;100.00;100197.63;6074039;28;20390;-71
2023/04/11 06:48:11;;;;;;;5.40;0.97;;;;;;;6.32;100.00;100197.47;6090500;28;20280;-72
2023/04/11 06:51:07;;;;;;;5.82;0.90;;;;;;;6.31;100.00;100195.81;6073972;28;20044;-70
2023/04/11 06:54:05;;;;;;;4.95;1.15;;;;;;;6.23;100.00;100204.38;6073309;28;20112;-71
2023/04/11 06:57:01;;;;;;;1.83;0.73;;;;;;;6.23;100.00;100214.06;6073409;28;20068;-70
2023/04/11 06:59:56;;;;;;;4.63;1.10;;;;;;;6.35;100.00;100249.88;6073576;28;20409;-71
2023/04/11 07:02:51;;;;;;;3.07;1.00;;;;;;;6.05;100.00;100234.03;6073537;28;20064;-69
2023/04/11 07:05:46;;;;;;;3.83;1.60;;;;;;;6.02;100.00;100240.41;6072650;28;20428;-70
2023/04/11 07:08:42;;;;;;;2.73;1.10;;;;;;;5.94;100.00;100232.31;6073038;28;20404;-71
2023/04/11 07:11:37;;;;;;;3.47;1.20;;;;;;;5.95;100.00;100242.69;6073939;28;20026;-71
2023/04/11 07:14:33;;;;;;;3.97;0.83;;;;;;;6.05;100.00;100244.56;6072459;28;20034;-71
2023/04/11 07:17:28;;;;;;;4.27;0.90;;;;;;;5.92;100.00;100224.53;6073683;28;20025;-71
2023/04/11 07:20:23;;;;;;;2.47;0.90;;;;;;;6.02;100.00;100239.56;6073416;28;20063;-71
2023/04/11 07:23:18;;;;;;;3.27;1.17;;;;;;;5.88;100.00;100236.28;6073048;28;20036;-73
2023/04/11 07:26:15;;;;;;;5.37;0.93;;;;;;;5.84;100.00;100229.56;6075961;28;20508;-72
2023/04/11 07:29:11;;;;;;;4.30;1.05;;;;;;;5.94;100.00;100245.47;6082266;28;20579;-73
2023/04/11 07:32:06;;;;;;;2.35;1.10;;;;;;;5.79;100.00;100239.66;6080559;28;20055;-70
2023/04/11 07:35:01;;;;;;;2.45;1.10;;;;;;;5.97;100.00;100267.13;6092655;28;20025;-72
2023/04/11 07:37:57;;;;;;;4.53;1.00;;;;;;;5.94;100.00;100258.63;6073122;28;20029;-71
2023/04/11 07:40:52;;;;;;;2.73;1.07;;;;;;;6.01;100.00;100269.50;6069210;28;20060;-72
2023/04/11 07:43:47;;;;;;;4.15;1.40;;;;;;;5.99;100.00;100249.38;6075340;28;20037;-70
2023/04/11 07:46:43;;;;;;;4.90;1.20;;;;;;;6.09;100.00;100257.34;6082170;28;20059;-69
2023/04/11 07:49:38;;;;;;;1.80;1.13;;;;;;;6.29;100.00;100274.09;6072130;28;20290;-69
2023/04/11 07:52:34;;;;;;;2.40;1.57;;;;;;;6.31;100.00;100261.63;6080483;28;20433;-71
2023/04/11 07:55:29;;;;;;;3.65;1.00;;;;;;;6.50;100.00;100277.53;6070830;28;20025;-71
2023/04/11 07:58:24;;;;;;;3.95;1.00;;;;;;;6.51;100.00;100268.69;6077439;28;20056;-72
2023/04/11 08:01:21;;;;;;;3.30;1.17;;;;;;;6.56;100.00;100266.47;6078535;28;20029;-70
2023/04/11 08:04:16;;;;;;;3.83;1.20;;;;;;;6.80;100.00;100295.97;6071297;28;20087;-72
2023/04/11 08:07:12;;;;;;;4.80;1.53;;;;;;;6.82;100.00;100298.50;6076208;28;20448;-70
2023/04/11 08:10:08;;;;;;;3.15;1.17;;;;;;;6.90;100.00;100286.31;6074670;28;20048;-73
2023/04/11 08:13:03;;;;;;;2.92;0.80;;;;;;;7.02;100.00;100300.22;6076450;28;20053;-72
2023/04/11 08:15:58;;;;;;;1.87;0.70;;;;;;;7.05;100.00;100284.97;6072060;28;20038;-71
2023/04/11 08:18:55;;;;;;;2.63;1.00;;;;;;;7.09;100.00;100301.38;6072192;28;20048;-71
2023/04/11 08:21:51;;;;;;;2.15;0.75;;;;;;;7.43;100.00;100304.50;6092258;28;20029;-71
2023/04/11 08:24:46;;;;;;;3.35;0.88;;;;;;;7.69;100.00;100306.47;6083211;28;20124;-71
2023/04/11 08:27:42;;;;;;;4.07;1.27;;;;;;;7.89;100.00;100307.31;6073314;28;20037;-71
2023/04/11 08:30:37;;;;;;;3.37;1.20;;;;;;;7.86;100.00;100294.41;6072421;28;20463;-72
2023/04/11 08:33:32;;;;;;;5.80;1.30;;;;;;;8.06;100.00;100309.28;6071335;28;20090;-72
2023/04/11 08:36:28;;;;;;;6.00;1.20;;;;;;;8.27;100.00;100286.22;6077839;28;20045;-72
2023/04/11 08:39:24;;;;;;;5.95;1.27;;;;;;;8.63;98.50;100286.41;6089343;28;20478;-71
2023/04/11 08:42:29;;;;;;;4.88;1.30;;;;;;;9.01;97.73;100307.41;6083296;28;20041;-73
2023/04/11 08:45:25;;;;;;;5.68;1.50;;;;;;;9.29;96.44;100295.84;6075813;28;20526;-72
2023/04/11 08:48:24;;;;;;;3.60;1.48;;;;;;;9.23;92.26;100288.50;6072249;28;20105;-73
2023/04/11 08:51:21;;;;;;;3.67;1.58;;;;;;;9.15;92.02;100290.22;6072073;28;20549;-72
2023/04/11 08:54:16;;;;;;;2.55;1.30;;;;;;;9.13;91.08;100310.69;6075652;28;20041;-73
2023/04/11 08:57:30;;;;;;;7.20;1.43;;;;;;;9.04;91.07;100299.19;6079259;28;20060;-71
2023/04/11 09:00:27;;;;;;;5.13;1.50;;;;;;;8.92;90.34;100298.53;6075988;28;20550;-73
2023/04/11 09:03:23;;;;;;;5.57;1.63;;;;;;;8.83;91.03;100315.25;6063847;28;20433;-72
2023/04/11 09:06:18;;;;;;;4.13;1.60;;;;;;;8.90;92.37;100299.66;6076361;28;20037;-73
2023/04/11 09:09:27;;;;;;;3.83;1.50;;;;;;;9.14;91.08;100313.19;6076325;28;20029;-73
2023/04/11 09:12:28;;;;;;;6.47;1.50;;;;;;;9.48;90.48;100290.41;6076139;28;20029;-73
2023/04/11 09:15:27;;;;;;;4.30;1.60;;;;;;;9.76;87.48;100303.59;6075662;28;20113;-72
2023/04/11 09:18:35;;;;;;;7.32;1.35;;;;;;;9.95;84.85;100299.00;6076590;28;20029;-72
2023/04/11 09:21:47;;;;;;;5.25;1.50;;;;;;;9.53;83.15;100297.94;6074217;28;20041;-72
2023/04/11 09:24:42;;;;;;;3.53;1.10;;;;;;;9.03;85.46;100286.09;6085583;28;20048;-72
2023/04/11 09:27:38;;;;;;;3.53;1.50;;;;;;;8.80;87.65;100293.56;6075235;28;20026;-72
2023/04/11 09:30:33;;;;;;;5.40;1.83;;;;;;;8.74;90.20;100294.16;6087717;28;20079;-73
2023/04/11 09:33:30;;;;;;;4.28;1.30;;;;;;;8.87;89.83;100284.06;6090111;28;20048;-72
2023/04/11 09:36:29;;;;;;;2.65;1.30;;;;;;;9.04;86.22;100296.53;6082064;28;20048;-72
2023/04/11 09:39:27;;;;;;;4.32;1.40;;;;;;;9.46;83.61;100289.75;6080254;28;20379;-70
2023/04/11 09:42:23;;;;;;;5.80;1.65;;;;;;;9.51;81.73;100300.69;6094941;28;20051;-73
2023/04/11 09:45:22;;;;;;;3.45;1.30;;;;;;;9.57;82.24;100286.03;6072692;28;20437;-73
2023/04/11 09:48:18;;;;;;;6.38;1.38;;;;;;;9.57;81.14;100278.94;6075095;28;20043;-73
2023/04/11 09:51:14;;;;;;;3.42;1.25;;;;;;;9.76;81.69;100293.00;6075273;28;20030;-72
2023/04/11 09:54:10;;;;;;;5.38;1.75;;;;;;;9.50;88.09;100307.00;6073754;28;20037;-73
2023/04/11 09:57:07;;;;;;;4.20;1.70;;;;;;;9.32;89.65;100308.75;6071211;28;20041;-72
2023/04/11 10:00:18;;;;;;;5.28;1.00;;;;;;;10.20;80.40;100291.28;6081216;28;20076;-71
2023/04/11 10:03:13;;;;;;;3.40;1.00;;;;;;;11.03;71.29;100301.25;6095119;28;20060;-72
2023/04/11 10:06:13;;;;;;;5.70;1.10;;;;;;;11.11;70.20;100304.78;6074530;28;20022;-72
2023/04/11 10:09:10;;;;;;;6.72;1.20;;;;;;;11.01;70.17;100297.91;6055503;28;20041;-73
2023/04/11 10:12:05;;;;;;;3.40;1.20;;;;;;;11.21;70.27;100289.53;6073470;28;20533;-71
2023/04/11 10:15:07;;;;;;;2.70;0.90;;;;;;;11.43;68.38;100288.13;6073930;28;20037;-72
2023/04/11 10:18:12;;;;;;;4.13;1.13;;;;;;;11.11;65.76;100283.53;6074312;28;20029;-71
2023/04/11 10:21:27;;;;;;;2.78;1.20;;;;;;;10.30;72.24;100329.94;6074441;28;20037;-73
2023/04/11 10:24:25;;;;;;;3.55;1.30;;;;;;;8.79;79.50;100342.13;6071805;28;20037;-72
2023/04/11 10:27:47;;;;;;;1.77;0.93;;;;;;;8.17;88.58;100369.03;6073081;28;20045;-72
2023/04/11 10:30:42;;;;;;;6.72;1.40;;;;;;;7.64;93.91;100382.59;6082366;28;20041;-72
2023/04/11 10:33:39;;;;;;;3.37;1.30;;;;;;;7.19;96.23;100365.50;6071560;28;20036;-72
2023/04/11 10:37:06;;;;;;;3.50;1.00;;;;;;;7.25;93.65;100374.69;6073728;28;20040;-72
2023/04/11 10:40:08;;;;;;;3.22;0.95;;;;;;;7.75;92.36;100360.50;6073999;28;20064;-71
2023/04/11 10:43:18;;;;;;;3.75;0.90;;;;;;;8.12;86.99;100348.34;6081277;28;20046;-70
2023/04/11 10:46:21;;;;;;;1.17;0.82;;;;;;;8.57;85.70;100331.88;6082115;28;20036;-72
2023/04/11 10:49:37;;;;;;;7.13;1.00;;;;;;;8.46;82.62;100327.59;6085637;28;20037;-71
2023/04/11 10:52:36;;;;;;;3.80;0.90;;;;;;;8.54;80.97;100324.25;6073768;28;20025;-72
2023/04/11 10:55:49;;;;;;;3.20;0.85;;;;;;;8.70;81.91;100349.09;6072899;28;20108;-72
2023/04/11 10:58:44;;;;;;;3.00;1.17;;;;;;;8.97;81.41;100353.59;6072696;28;20056;-73
2023/04/11 11:01:40;;;;;;;3.30;1.07;;;;;;;9.22;80.25;100337.09;6073042;28;20029;-72
2023/04/11 11:04:38;;;;;;;2.53;1.10;;;;;;;9.78;78.78;100338.72;6072717;28;20026;-73
2023/04/11 11:07:34;;;;;;;5.60;1.20;;;;;;;10.09;76.82;100338.19;6072670;28;20087;-72
2023/04/11 11:10:36;;;;;;;3.00;1.10;;;;;;;10.27;75.80;100335.56;6052103;28;20053;-72
2023/04/11 11:13:42;;;;;;;5.65;1.27;;;;;;;10.59;75.86;100317.25;6094935;28;20460;-71
2023/04/11 11:16:38;;;;;;;3.40;1.13;;;;;;;11.01;72.33;100303.22;6071446;28;20033;-72
2023/04/11 11:19:34;;;;;;;2.77;0.97;;;;;;;11.13;69.43;100318.72;6073236;28;20184;-73
2023/04/11 11:22:29;;;;;;;3.70;0.90;;;;;;;11.35;61.90;100314.66;6056108;28;20278;-72
2023/04/11 11:25:26;;;;;;;2.33;0.70;;;;;;;11.41;57.22;100339.72;6072369;28;20486;-73
2023/04/11 11:28:21;;;;;;;3.17;1.02;;;;;;;11.45;57.50;100336.56;6072701;28;20026;-71
2023/04/11 11:31:16;;;;;;;3.65;1.08;;;;;;;11.92;56.08;100351.03;6072409;28;20069;-71
2023/04/11 11:34:12;;;;;;;2.60;0.93;;;;;;;11.80;55.06;100341.69;6087560;28;20036;-71
2023/04/11 11:37:07;;;;;;;1.30;0.60;;;;;;;11.78;53.98;100346.34;6097082;28;20041;-71
2023/04/11 11:40:11;;;;;;;2.63;0.77;;;;;;;11.55;53.29;100344.41;6097132;28;20108;-71
2023/04/11 11:43:06;;;;;;;3.47;0.85;;;;;;;11.43;55.08;100341.22;6074215;28;20029;-72
2023/04/11 11:46:07;;;;;;;2.37;0.80;;;;;;;11.45;52.64;100365.78;6054070;28;20102;-72
2023/04/11 11:49:06;;;;;;;4.82;0.93;;;;;;;11.45;54.64;100360.47;6072679;28;20030;-72
2023/04/11 11:52:01;;;;;;;2.45;0.80;;;;;;;11.24;54.76;100375.97;6072917;28;20033;-72
2023/04/11 11:54:57;;;;;;;7.13;0.83;;;;;;;11.21;55.54;100363.03;6081095;28;20040;-72
2023/04/11 11:57:52;;;;;;;5.70;0.90;;;;;;;11.41;55.84;100364.44;6055473;28;20053;-73
2023/04/11 12:00:49;;;;;;;5.15;1.05;;;;;;;12.00;54.75;100375.94;6072596;28;20057;-74
2023/04/11 12:03:46;;;;;;;2.83;0.90;;;;;;;12.40;51.81;100368.00;6064994;28;20346;-74
2023/04/11 12:06:44;;;;;;;2.83;0.90;;;;;;;12.58;51.79;100386.47;6072706;28;20037;-71
2023/04/11 12:09:40;;;;;;;5.03;1.20;;;;;;;12.92;52.89;100385.25;6072652;28;20036;-73
2023/04/11 12:12:37;;;;;;;3.45;0.52;;;;;;;13.25;50.66;100367.41;6072131;28;20045;-72
2023/04/11 12:15:34;;;;;;;3.72;1.35;;;;;;;13.11;49.40;100360.09;6075423;28;20067;-71
2023/04/11 12:18:29;;;;;;;3.35;0.90;;;;;;;12.52;51.01;100366.66;6059677;28;20032;-72
2023/04/11 12:21:25;;;;;;;2.70;0.80;;;;;;;12.60;51.51;100373.81;6074094;28;20390;-73
2023/04/11 12:24:20;;;;;;;5.70;1.10;;;;;;;13.20;51.17;100374.22;6099961;28;20040;-73
2023/04/11 12:27:16;;;;;;;4.17;1.10;;;;;;;12.77;48.17;100394.94;6078249;28;20033;-72
2023/04/11 12:30:14;;;;;;;3.37;1.10;;;;;;;12.59;49.64;100391.59;6072522;28;20099;-71
2023/04/11 12:33:09;;;;;;;2.25;0.70;;;;;;;12.38;51.16;100385.94;6072833;28;20034;-71
2023/04/11 12:36:06;;;;;;;2.20;0.70;;;;;;;11.88;51.15;100399.31;6075621;28;20040;-72
2023/04/11 12:39:01;;;;;;;5.07;0.88;;;;;;;11.77;53.49;100408.41;6076818;28;20025;-71
2023/04/11 12:41:56;;;;;;;3.17;1.20;;;;;;;11.85;53.06;100411.09;6077005;28;20030;-72
2023/04/11 12:44:52;;;;;;;3.67;0.70;;;;;;;11.77;52.85;100384.50;6076383;28;20487;-72
2023/04/11 12:47:47;;;;;;;2.97;0.85;;;;;;;11.99;52.54;100406.97;6078728;28;20096;-72
2023/04/11 12:50:42;;;;;;;3.30;0.80;;;;;;;12.01;52.92;100404.19;6075948;28;20029;-72
2023/04/11 12:53:38;;;;;;;6.23;0.90;;;;;;;11.90;51.62;100402.66;6075746;28;20060;-71
2023/04/11 12:56:33;;;;;;;3.20;1.03;;;;;;;11.66;50.58;100398.06;6076254;28;20493;-72
2023/04/11 12:59:28;;;;;;;3.90;0.77;;;;;;;11.49;50.30;100401.66;6077960;28;20022;-72
2023/04/11 13:02:24;;;;;;;5.15;0.80;;;;;;;11.51;51.39;100425.38;6079771;28;21172;-72
2023/04/11 13:05:23;;;;;;;2.40;0.80;;;;;;;11.73;51.24;100408.91;6078546;28;20040;-72
2023/04/11 13:08:18;;;;;;;4.43;0.80;;;;;;;11.89;51.51;100417.78;6079984;28;20275;-72
2023/04/11 13:11:13;;;;;;;4.47;1.00;;;;;;;11.99;51.90;100414.13;6076340;28;20037;-71
2023/04/11 13:14:09;;;;;;;1.80;0.60;;;;;;;11.93;52.36;100421.75;6076977;28;20075;-71
2023/04/11 13:17:05;;;;;;;4.33;1.00;;;;;;;11.75;52.47;100442.28;6079010;28;20066;-72
2023/04/11 13:20:01;;;;;;;3.35;1.83;;;;;;;10.74;56.04;100452.75;6077394;28;20037;-71
2023/04/11 13:22:56;;;;;;;2.45;1.02;;;;;;;9.96;60.52;100469.34;6075832;28;20033;-72
2023/04/11 13:25:51;;;;;;;5.57;1.10;;;;;;;9.50;62.40;100468.44;6075703;28;20036;-72
2023/04/11 13:28:46;;;;;;;3.63;1.20;;;;;;;8.90;67.36;100460.94;6075919;28;20091;-71
2023/04/11 13:31:42;;;;;;;3.53;1.20;;;;;;;8.58;70.57;100463.06;6075417;28;20090;-71
2023/04/11 13:34:37;;;;;;;4.30;1.10;;;;;;;8.54;68.51;100469.59;6075284;28;20482;-71
2023/04/11 13:37:32;;;;;;;3.40;0.83;;;;;;;8.60;65.95;100479.59;6075864;28;20029;-73
2023/04/11 13:40:27;;;;;;;2.57;0.63;;;;;;;8.60;64.92;100484.91;6075397;28;20036;-72
2023/04/11 13:43:23;;;;;;;3.07;0.80;;;;;;;8.69;64.18;100507.84;6075001;28;20033;-70